Time;durP1;ratioP1;P1;durP2;ratioP2;P2;SDS_P1;SDS_P2;PMS_P1;PMS_P2;Temp;Humidity;BMP_temperature;BMP_pressure;BME280_temperature;BME280_humidity;BME280_pressure;Samples;Min_cycle;Max_cycle;Signal;HPM_P1;HPM_P2
2021/01/24 00:01:46;;;;;;;12.95;10.20;;;;;;;;;;5032657;28;20484;-75
2021/01/24 00:04:12;;;;;;;11.85;9.85;;;;;;;;;;5031645;28;20533;-77
2021/01/24 00:06:38;;;;;;;13.40;10.95;;;;;;;;;;5032517;28;20189;-76
2021/01/24 00:09:04;;;;;;;12.47;10.40;;;;;;;;;;5030771;28;20259;-75
2021/01/24 00:11:30;;;;;;;13.82;10.15;;;;;;;;;;5031757;28;20450;-77
2021/01/24 00:13:56;;;;;;;15.57;11.27;;;;;;;;;;5031740;28;20204;-75
2021/01/24 00:16:22;;;;;;;13.18;10.32;;;;;;;;;;5032455;28;20188;-78
2021/01/24 00:18:48;;;;;;;14.55;10.50;;;;;;;;;;5030969;28;20200;-76
2021/01/24 00:21:14;;;;;;;17.57;12.13;;;;;;;;;;5032342;28;20176;-78
2021/01/24 00:23:40;;;;;;;16.50;11.73;;;;;;;;;;5032278;28;20920;-76
2021/01/24 00:26:07;;;;;;;15.37;11.67;;;;;;;;;;5031406;28;20481;-77
2021/01/24 00:28:33;;;;;;;16.77;10.13;;;;;;;;;;5031798;28;20439;-76
2021/01/24 00:30:59;;;;;;;16.55;11.10;;;;;;;;;;5032027;28;20192;-76
2021/01/24 00:33:25;;;;;;;14.75;9.85;;;;;;;;;;5031470;28;20208;-75
2021/01/24 00:35:51;;;;;;;15.35;11.55;;;;;;;;;;5031730;28;20188;-77
2021/01/24 00:38:17;;;;;;;14.20;10.27;;;;;;;;;;5031732;28;20203;-78
2021/01/24 00:40:43;;;;;;;9.55;6.93;;;;;;;;;;5031004;28;20188;-77
2021/01/24 00:43:09;;;;;;;15.20;10.18;;;;;;;;;;5032163;28;20820;-77
2021/01/24 00:45:35;;;;;;;13.02;9.57;;;;;;;;;;5030807;28;20224;-77
2021/01/24 00:48:01;;;;;;;15.02;8.80;;;;;;;;;;5030472;28;20625;-78
2021/01/24 00:50:27;;;;;;;11.50;7.68;;;;;;;;;;5031186;28;20182;-77
2021/01/24 00:52:53;;;;;;;10.68;8.32;;;;;;;;;;5026917;28;20698;-76
2021/01/24 00:55:19;;;;;;;10.30;8.53;;;;;;;;;;5011964;28;20241;-76
2021/01/24 00:57:45;;;;;;;12.10;7.50;;;;;;;;;;5011076;28;20521;-77
2021/01/24 01:00:12;;;;;;;13.23;7.50;;;;;;;;;;5011368;28;20456;-78
2021/01/24 01:02:38;;;;;;;10.45;6.85;;;;;;;;;;5011839;28;20802;-78
2021/01/24 01:05:05;;;;;;;8.88;6.07;;;;;;;;;;5010499;28;20640;-78
2021/01/24 01:07:31;;;;;;;8.20;4.22;;;;;;;;;;5011868;28;20256;-77
2021/01/24 01:09:57;;;;;;;4.70;4.13;;;;;;;;;;5010778;28;20204;-77
2021/01/24 01:12:23;;;;;;;7.50;5.20;;;;;;;;;;5011337;28;20221;-77
2021/01/24 01:14:49;;;;;;;6.88;5.30;;;;;;;;;;5011051;28;20472;-77
2021/01/24 01:17:15;;;;;;;7.30;5.80;;;;;;;;;;5011265;28;20195;-77
2021/01/24 01:19:41;;;;;;;12.50;5.87;;;;;;;;;;5009896;28;20770;-77
2021/01/24 01:22:07;;;;;;;5.10;4.50;;;;;;;;;;5011379;28;20468;-77
2021/01/24 01:24:33;;;;;;;6.18;4.50;;;;;;;;;;5011187;28;20191;-77
2021/01/24 01:26:59;;;;;;;7.55;6.20;;;;;;;;;;5009823;28;20186;-79
2021/01/24 01:29:25;;;;;;;7.18;6.35;;;;;;;;;;5011891;28;20556;-78
2021/01/24 01:31:51;;;;;;;7.40;5.75;;;;;;;;;;5009648;28;20186;-78
2021/01/24 01:34:17;;;;;;;12.27;9.52;;;;;;;;;;5010802;28;20179;-78
2021/01/24 01:36:43;;;;;;;19.02;8.10;;;;;;;;;;5010772;28;20182;-78
2021/01/24 01:39:09;;;;;;;8.20;6.15;;;;;;;;;;5011467;28;20214;-78
2021/01/24 01:41:35;;;;;;;8.85;6.80;;;;;;;;;;5008759;28;20187;-78
2021/01/24 01:44:03;;;;;;;11.25;8.98;;;;;;;;;;5010577;28;20183;-78
2021/01/24 01:46:30;;;;;;;8.15;6.68;;;;;;;;;;5009372;28;20191;-77
2021/01/24 01:48:57;;;;;;;6.68;5.97;;;;;;;;;;5009092;28;20229;-78
2021/01/24 01:51:24;;;;;;;8.30;6.50;;;;;;;;;;5010673;28;20179;-78
2021/01/24 01:53:50;;;;;;;10.30;5.35;;;;;;;;;;5012526;28;20202;-77
2021/01/24 01:56:16;;;;;;;6.93;4.40;;;;;;;;;;5022341;28;20178;-78
2021/01/24 01:58:42;;;;;;;5.15;4.63;;;;;;;;;;5032623;28;20260;-77
2021/01/24 02:01:40;;;;;;;8.52;6.57;;;;;;;;;;5034083;28;20209;-79
2021/01/24 02:04:25;;;;;;;6.85;5.60;;;;;;;;;;5000601;28;20198;-76
2021/01/24 02:06:54;;;;;;;3.55;3.10;;;;;;;;;;5034079;28;20178;-77
2021/01/24 02:09:26;;;;;;;3.35;2.30;;;;;;;;;;5033403;28;20188;-76
2021/01/24 02:11:52;;;;;;;4.07;2.13;;;;;;;;;;5034471;28;20273;-77
2021/01/24 02:14:23;;;;;;;1.63;1.52;;;;;;;;;;5033883;28;20183;-77
2021/01/24 02:16:49;;;;;;;1.35;1.08;;;;;;;;;;5032791;28;20258;-76
2021/01/24 02:19:39;;;;;;;1.45;1.20;;;;;;;;;;5033802;28;20636;-76
2021/01/24 02:22:06;;;;;;;1.33;1.17;;;;;;;;;;5034417;28;20277;-78
2021/01/24 02:24:35;;;;;;;5.78;1.50;;;;;;;;;;5033085;28;20185;-76
2021/01/24 02:27:06;;;;;;;3.65;1.40;;;;;;;;;;5033302;28;20194;-76
2021/01/24 02:29:44;;;;;;;2.53;1.23;;;;;;;;;;5033732;28;20186;-77
2021/01/24 02:32:10;;;;;;;1.45;1.10;;;;;;;;;;5032720;28;20200;-77
2021/01/24 02:34:37;;;;;;;1.38;1.27;;;;;;;;;;5033841;28;20190;-75
2021/01/24 02:37:05;;;;;;;2.53;1.50;;;;;;;;;;5033255;28;20178;-75
2021/01/24 02:39:31;;;;;;;1.48;1.10;;;;;;;;;;5032637;28;20726;-76
2021/01/24 02:41:57;;;;;;;4.07;1.90;;;;;;;;;;5033648;28;20193;-76
2021/01/24 02:44:25;;;;;;;1.10;1.00;;;;;;;;;;5033356;28;20228;-78
2021/01/24 02:46:50;;;;;;;3.58;1.25;;;;;;;;;;5031808;28;20189;-76
2021/01/24 02:49:17;;;;;;;2.33;1.47;;;;;;;;;;5033104;28;20716;-78
2021/01/24 02:51:43;;;;;;;1.92;1.30;;;;;;;;;;5033976;28;20424;-78
2021/01/24 02:54:10;;;;;;;5.65;2.08;;;;;;;;;;5032457;28;20249;-77
2021/01/24 02:56:37;;;;;;;3.25;1.48;;;;;;;;;;5020549;28;20189;-78
2021/01/24 02:59:03;;;;;;;2.00;1.80;;;;;;;;;;5013126;28;20189;-79
2021/01/24 03:01:30;;;;;;;2.75;1.85;;;;;;;;;;5012841;28;20195;-79
2021/01/24 03:03:56;;;;;;;2.15;1.73;;;;;;;;;;5012878;28;20552;-80
2021/01/24 03:06:22;;;;;;;1.95;1.40;;;;;;;;;;5013943;28;20182;-78
2021/01/24 03:08:48;;;;;;;2.63;2.22;;;;;;;;;;5011161;28;20425;-78
2021/01/24 03:11:17;;;;;;;1.63;1.45;;;;;;;;;;5013443;28;20201;-78
2021/01/24 03:13:44;;;;;;;3.42;2.17;;;;;;;;;;5012991;28;20289;-77
2021/01/24 03:16:12;;;;;;;3.08;2.78;;;;;;;;;;5011199;28;20523;-77
2021/01/24 03:18:40;;;;;;;2.92;2.30;;;;;;;;;;5012154;28;20210;-78
2021/01/24 03:21:09;;;;;;;4.50;3.28;;;;;;;;;;5013300;28;20692;-79
2021/01/24 03:23:36;;;;;;;3.03;2.38;;;;;;;;;;5012239;28;21014;-78
2021/01/24 03:26:02;;;;;;;4.47;2.88;;;;;;;;;;5013295;28;20187;-78
2021/01/24 03:28:29;;;;;;;2.47;1.92;;;;;;;;;;5011606;28;20276;-78
2021/01/24 03:30:55;;;;;;;3.75;2.50;;;;;;;;;;5012274;28;20191;-77
2021/01/24 03:33:21;;;;;;;5.33;2.70;;;;;;;;;;5012584;28;20206;-77
2021/01/24 03:35:47;;;;;;;3.70;2.40;;;;;;;;;;5012901;28;20845;-77
2021/01/24 03:38:13;;;;;;;4.90;3.05;;;;;;;;;;5009869;28;20199;-77
2021/01/24 03:40:39;;;;;;;6.27;3.20;;;;;;;;;;5012805;28;20180;-77
2021/01/24 03:43:05;;;;;;;6.53;4.10;;;;;;;;;;5011975;28;20429;-77
2021/01/24 03:45:31;;;;;;;4.27;3.17;;;;;;;;;;5012625;28;20435;-77
2021/01/24 03:47:57;;;;;;;7.78;4.30;;;;;;;;;;5011126;28;20705;-77
2021/01/24 03:50:23;;;;;;;3.63;2.58;;;;;;;;;;5012610;28;20269;-77
2021/01/24 03:52:49;;;;;;;8.68;5.03;;;;;;;;;;5012534;28;20199;-78
2021/01/24 03:55:15;;;;;;;11.70;6.03;;;;;;;;;;5011030;28;20210;-78
2021/01/24 03:57:41;;;;;;;9.48;4.55;;;;;;;;;;5021785;28;20463;-78
2021/01/24 04:00:07;;;;;;;9.88;5.95;;;;;;;;;;5031610;28;20185;-78
2021/01/24 04:02:33;;;;;;;14.35;5.53;;;;;;;;;;5031182;28;20182;-78
2021/01/24 04:04:59;;;;;;;11.77;7.53;;;;;;;;;;5031707;28;20581;-78
2021/01/24 04:07:25;;;;;;;18.10;8.35;;;;;;;;;;5031446;28;20206;-78
2021/01/24 04:09:51;;;;;;;11.70;8.50;;;;;;;;;;5031308;28;20211;-77
2021/01/24 04:12:17;;;;;;;13.68;7.15;;;;;;;;;;5032558;28;20460;-78
2021/01/24 04:14:43;;;;;;;15.18;8.27;;;;;;;;;;5032086;28;20663;-78
2021/01/24 04:17:09;;;;;;;15.20;6.28;;;;;;;;;;5030884;28;20220;-77
2021/01/24 04:19:35;;;;;;;16.13;9.18;;;;;;;;;;5031487;28;20655;-78
2021/01/24 04:22:01;;;;;;;12.88;6.43;;;0.40;99.90;;;;;;5032201;28;20190;-78
2021/01/24 04:24:27;;;;;;;14.43;9.10;;;0.30;99.90;;;;;;5030916;28;20655;-78
2021/01/24 04:26:52;;;;;;;18.00;9.17;;;0.40;99.90;;;;;;5031569;28;20669;-78
2021/01/24 04:29:19;;;;;;;16.43;10.07;;;0.40;99.90;;;;;;5030322;28;20425;-78
2021/01/24 04:31:44;;;;;;;13.23;7.03;;;0.40;99.90;;;;;;5030592;28;20504;-78
2021/01/24 04:34:11;;;;;;;17.20;10.20;;;0.30;99.90;;;;;;5032265;28;20292;-81
2021/01/24 04:36:37;;;;;;;59.72;10.38;;;0.30;99.90;;;;;;5033196;28;20174;-81
2021/01/24 04:39:04;;;;;;;13.90;8.32;;;0.40;99.90;;;;;;5033434;28;20662;-81
2021/01/24 04:41:30;;;;;;;21.38;12.88;;;0.40;99.90;;;;;;5033178;28;20166;-79
2021/01/24 04:43:55;;;;;;;17.95;10.55;;;0.40;99.90;;;;;;5033381;28;20174;-80
2021/01/24 04:46:21;;;;;;;27.27;12.70;;;0.30;99.90;;;;;;5033321;28;20181;-79
2021/01/24 04:48:47;;;;;;;20.37;10.07;;;0.30;99.90;;;;;;5032937;28;20698;-79
2021/01/24 04:51:13;;;;;;;19.00;11.10;;;;;;;;;;5033314;28;20186;-79
2021/01/24 04:53:40;;;;;;;26.30;13.17;;;;;;;;;;5031811;28;20462;-80
2021/01/24 04:56:06;;;;;;;22.40;12.23;;;;;;;;;;5033399;28;20496;-80
2021/01/24 04:58:32;;;;;;;24.33;13.18;;;;;;;;;;5033101;28;20194;-79
2021/01/24 05:00:59;;;;;;;24.48;14.07;;;;;;;;;;5032168;28;20529;-81
2021/01/24 05:03:25;;;;;;;25.35;14.70;;;;;;;;;;5033196;28;20193;-80
2021/01/24 05:05:51;;;;;;;27.07;14.97;;;;;;;;;;5033133;28;20186;-79
2021/01/24 05:08:17;;;;;;;22.88;11.68;;;;;;;;;;5032783;28;20439;-80
2021/01/24 05:10:48;;;;;;;27.67;14.07;;;;;;;;;;5033121;28;20251;-81
2021/01/24 05:13:25;;;;;;;25.05;13.68;;;;;;;;;;5033188;28;20228;-81
2021/01/24 05:15:51;;;;;;;28.83;12.43;;;;;;;;;;5032995;28;20212;-80
2021/01/24 05:18:17;;;;;;;28.40;15.30;;;;;;;;;;5032821;28;20604;-80
2021/01/24 05:20:43;;;;;;;32.63;13.43;;;;;;;;;;5033306;28;20178;-82
2021/01/24 05:23:10;;;;;;;30.33;16.75;;;;;;;;;;5033213;28;20192;-83
2021/01/24 05:25:36;;;;;;;26.20;14.70;;;;;;;;;;5033000;28;20566;-82
2021/01/24 05:28:18;;;;;;;31.75;15.95;;;;;;;;;;5032588;28;20198;-81
2021/01/24 05:30:44;;;;;;;22.00;14.15;;;;;;;;;;5031732;28;20178;-81
2021/01/24 05:33:10;;;;;;;17.23;6.97;;;;;;;;;;5034522;28;20690;-80
2021/01/24 05:35:46;;;;;;;25.38;12.10;;;;;;;;;;5036733;28;20264;-80
2021/01/24 05:38:16;;;;;;;15.13;8.60;;;;;;;;;;5035085;28;20193;-80
2021/01/24 05:40:42;;;;;;;23.50;13.30;;;;;;;;;;5036782;28;20175;-80
2021/01/24 05:43:08;;;;;;;22.90;13.20;;;;;;;;;;5036665;28;20507;-81
2021/01/24 05:45:37;;;;;;;21.90;11.38;;;;;;;;;;5036693;28;20407;-81
2021/01/24 05:48:05;;;;;;;20.80;10.35;;;;;;;;;;5042609;28;20194;-82
2021/01/24 05:50:34;;;;;;;18.23;10.88;;;;;;;;;;5045305;28;20201;-81
2021/01/24 05:53:03;;;;;;;21.70;10.98;;;;;;;;;;5041130;28;20202;-81
2021/01/24 05:55:31;;;;;;;15.80;9.27;;;;;;;;;;5036503;28;20169;-81
2021/01/24 05:57:57;;;;;;;15.90;9.05;;;;;;;;;;5034693;28;20202;-81
2021/01/24 06:00:23;;;;;;;17.83;10.65;;;;;;;;;;5035067;28;20185;-80
2021/01/24 06:02:49;;;;;;;17.40;9.10;;;;;;;;;;5035054;28;20178;-80
2021/01/24 06:05:15;;;;;;;16.83;10.40;;;;;;;;;;5034922;28;20186;-80
2021/01/24 06:07:44;;;;;;;19.87;11.67;;;;;;;;;;5035875;28;20202;-79
2021/01/24 06:10:10;;;;;;;12.63;7.93;;;;;;;;;;5036018;28;20936;-80
2021/01/24 06:12:37;;;;;;;16.65;9.05;;;;;;;;;;5036080;28;20194;-80
2021/01/24 06:15:04;;;;;;;13.32;8.50;;;;;;;;;;5035957;28;20686;-80
2021/01/24 06:17:34;;;;;;;14.85;8.52;;;;;;;;;;5035517;28;20549;-80
2021/01/24 06:20:01;;;;;;;16.80;8.45;;;;;;;;;;5034721;28;20173;-81
2021/01/24 06:22:33;;;;;;;21.48;12.25;;;;;;;;;;5035778;28;20189;-82
2021/01/24 06:25:02;;;;;;;10.25;6.82;;;;;;;;;;5035928;28;20231;-85
2021/01/24 06:27:33;;;;;;;19.73;9.98;;;;;;;;;;5035490;28;20194;-82
2021/01/24 06:30:01;;;;;;;17.85;10.15;;;;;;;;;;5034552;28;20268;-82
2021/01/24 06:32:28;;;;;;;17.88;7.80;;;;;;;;;;5035699;28;20201;-84
2021/01/24 06:34:55;;;;;;;18.30;9.27;;;;;;;;;;5034469;28;20174;-83
2021/01/24 06:37:25;;;;;;;9.65;5.80;;;;;;;;;;5035435;28;20197;-84
2021/01/24 06:39:52;;;;;;;12.07;7.43;;;;;;;;;;5034378;28;20209;-83
2021/01/24 06:42:38;;;;;;;18.02;9.48;;;;;;;;;;5035524;28;20174;-83
2021/01/24 06:45:27;;;;;;;14.85;7.40;;;;;;;;;;5034551;28;20233;-83
2021/01/24 06:47:54;;;;;;;15.77;8.07;;;;;;;;;;5034981;28;20198;-81
2021/01/24 06:50:38;;;;;;;13.82;8.23;;;;;;;;;;5035303;28;20193;-82
2021/01/24 06:53:05;;;;;;;17.85;11.05;;;;;;;;;;5035492;28;20206;-82
2021/01/24 06:55:31;;;;;;;21.45;12.05;;;;;;;;;;5034026;28;20180;-84
2021/01/24 06:57:57;;;;;;;26.90;13.95;;;;;;;;;;5033713;28;20696;-82
2021/01/24 07:00:23;;;;;;;29.33;14.75;;;;;;;;;;5033983;28;20230;-82
2021/01/24 07:02:49;;;;;;;25.88;12.90;;;;;;;;;;5033952;28;20185;-86
2021/01/24 07:05:26;;;;;;;23.42;12.20;;;;;;;;;;5033893;28;20170;-83
2021/01/24 07:07:53;;;;;;;28.80;14.35;;;;;;;;;;5034884;28;20186;-86
2021/01/24 07:10:37;;;;;;;20.02;10.20;;;;;;;;;;5033706;28;20209;-87
2021/01/24 07:13:22;;;;;;;28.83;14.13;;;;;;;;;;5034997;28;20202;-83
2021/01/24 07:15:52;;;;;;;35.90;14.82;;;;;;;;;;5034911;28;20580;-84
2021/01/24 07:18:18;;;;;;;27.80;16.52;;;;;;;;;;5033326;28;20194;-84
2021/01/24 07:20:44;;;;;;;19.42;10.80;;;;;;;;;;5033560;28;20183;-84
2021/01/24 07:23:10;;;;;;;25.92;9.75;;;;;;;;;;5034827;28;20228;-85
2021/01/24 07:25:37;;;;;;;28.93;15.50;;;;;;;;;;5033472;28;20177;-86
2021/01/24 07:28:03;;;;;;;22.63;12.70;;;;;;;;;;5033065;28;20444;-86
2021/01/24 07:30:29;;;;;;;19.15;10.38;;;;;;;;;;5033445;28;20174;-88
2021/01/24 07:32:55;;;;;;;26.10;13.98;;;;;;;;;;5033298;28;20271;-86
2021/01/24 07:35:21;;;;;;;28.13;15.95;;;;;;;;;;5033496;28;20178;-85
2021/01/24 07:37:48;;;;;;;15.05;9.25;;;;;;;;;;5033082;28;20281;-86
2021/01/24 07:40:14;;;;;;;25.50;14.50;;;;;;;;;;5033268;28;20182;-85
2021/01/24 07:42:40;;;;;;;25.65;14.65;;;;;;;;;;5033528;28;20540;-87
2021/01/24 07:45:06;;;;;;;36.30;19.15;;;;;;;;;;5033096;28;20178;-87
2021/01/24 07:47:32;;;;;;;29.45;13.93;;;;;;;;;;5033298;28;20221;-87
2021/01/24 07:49:58;;;;;;;27.58;15.50;;;;;;;;;;5033297;28;20179;-85
2021/01/24 07:52:24;;;;;;;31.85;16.60;;;;;;;;;;5034289;28;20198;-86
2021/01/24 07:54:50;;;;;;;28.67;15.05;;;;;;;;;;5032689;28;20174;-85
2021/01/24 07:57:17;;;;;;;18.92;11.00;;;;;;;;;;5032568;28;20706;-85
2021/01/24 07:59:42;;;;;;;24.00;14.25;;;;;;;;;;5034375;28;20251;-85
2021/01/24 08:02:12;;;;;;;23.67;13.77;;;;;;;;;;5032870;28;20209;-86
2021/01/24 08:04:38;;;;;;;21.05;10.82;;;;;;;;;;5032759;28;20699;-86
2021/01/24 08:07:08;;;;;;;23.83;11.00;;;;;;;;;;5032425;28;20678;-85
2021/01/24 08:09:34;;;;;;;19.30;9.43;;;;;;;;;;5032611;28;20582;-85
2021/01/24 08:12:06;;;;;;;16.73;10.25;;;;;;;;;;5032612;28;20165;-85
2021/01/24 08:14:32;;;;;;;18.52;11.10;;;;;;;;;;5032630;28;20196;-85
2021/01/24 08:16:58;;;;;;;21.70;12.15;;;;;;;;;;5032234;28;20182;-83
2021/01/24 08:19:25;;;;;;;14.18;8.35;;;;;;;;;;5032632;28;20273;-83
2021/01/24 08:21:52;;;;;;;9.63;5.00;;;;;;;;;;5033900;28;20179;-85
2021/01/24 08:24:18;;;;;;;16.88;10.20;;;;;;;;;;5032457;28;20182;-84
2021/01/24 08:26:44;;;;;;;15.10;9.80;;;;;;;;;;5032245;28;20198;-82
2021/01/24 08:29:10;;;;;;;11.90;8.05;;;;;;;;;;5032374;28;20188;-83
2021/01/24 08:31:36;;;;;;;11.50;8.13;;;;;;;;;;5033485;28;20252;-82
2021/01/24 08:34:03;;;;;;;17.20;8.95;;;;;;;;;;5032217;28;20210;-80
2021/01/24 08:36:30;;;;;;;13.13;8.15;;;;;;;;;;5032092;28;20594;-81
2021/01/24 08:38:57;;;;;;;11.10;6.15;;;;;;;;;;5015642;28;20572;-81
2021/01/24 08:41:27;;;;;;;16.17;10.27;;;;;;;;;;5033185;28;20166;-80
2021/01/24 08:44:04;;;;;;;15.40;8.68;;;;;;;;;;5033032;28;20203;-80
2021/01/24 08:46:34;;;;;;;14.80;9.32;;;;;;;;;;5031676;28;20243;-80
2021/01/24 08:49:02;;;;;;;15.15;9.10;;;;;;;;;;5032883;28;20197;-79
2021/01/24 08:51:48;;;;;;;16.27;10.55;;;;;;;;;;5033082;28;20198;-80
2021/01/24 08:54:26;;;;;;;17.05;10.18;;;;;;;;;;5033129;28;20210;-80
2021/01/24 08:57:06;;;;;;;13.15;9.23;;;;;;;;;;5032698;28;20606;-78
2021/01/24 08:59:36;;;;;;;19.05;8.07;;;;;;;;;;5032864;28;20169;-79
2021/01/24 09:02:02;;;;;;;12.93;8.95;;;;;;;;;;5033127;28;20571;-77
2021/01/24 09:04:29;;;;;;;15.57;9.52;;;;;;;;;;5033316;28;20181;-79
2021/01/24 09:07:01;;;;;;;15.27;7.65;;;;;;;;;;5033602;28;20692;-80
2021/01/24 09:09:27;;;;;;;11.57;7.13;;;;;;;;;;5035909;28;20218;-78
2021/01/24 09:11:54;;;;;;;13.10;8.43;;;;;;;;;;5035890;28;20183;-79
2021/01/24 09:14:20;;;;;;;16.00;9.15;;;;;;;;;;5037212;28;20194;-79
2021/01/24 09:16:46;;;;;;;11.68;6.97;;;;;;;;;;5036891;28;20174;-78
2021/01/24 09:19:12;;;;;;;15.07;9.30;;;;;;;;;;5037228;28;20174;-79
2021/01/24 09:21:38;;;;;;;18.90;11.60;;;;;;;;;;5038969;28;20401;-79
2021/01/24 09:24:04;;;;;;;18.77;11.70;;;;;;;;;;5038236;28;20189;-78
2021/01/24 09:26:30;;;;;;;14.93;8.60;;;;;;;;;;5037023;28;20170;-78
2021/01/24 09:28:56;;;;;;;21.90;11.10;;;;;;;;;;5036637;28;20197;-79
2021/01/24 09:31:22;;;;;;;23.13;13.40;;;;;;;;;;5033847;28;20923;-78
2021/01/24 09:33:48;;;;;;;23.27;14.20;;;;;;;;;;5036633;28;20542;-78
2021/01/24 09:36:14;;;;;;;21.70;12.13;;;;;;;;;;5036753;28;20495;-78
2021/01/24 09:38:40;;;;;;;28.00;14.48;;;;;;;;;;5036532;28;20432;-78
2021/01/24 09:41:06;;;;;;;25.43;15.70;;;;;;;;;;5036718;28;20616;-79
2021/01/24 09:43:32;;;;;;;30.73;16.63;;;;;;;;;;5036631;28;20419;-79
2021/01/24 09:45:58;;;;;;;22.20;11.68;;;;;;;;;;5036533;28;20410;-79
2021/01/24 09:48:24;;;;;;;23.77;11.20;;;;;;;;;;5036295;28;20194;-79
2021/01/24 09:50:50;;;;;;;23.23;12.43;;;;;;;;;;5036460;28;20197;-78
2021/01/24 09:53:16;;;;;;;32.45;16.50;;;;;;;;;;5036397;28;20255;-78
2021/01/24 09:55:42;;;;;;;30.83;16.73;;;;;;;;;;5065953;28;20178;-78
2021/01/24 09:58:08;;;;;;;25.13;14.40;;;;;;;;;;5035581;28;20429;-79
2021/01/24 10:00:34;;;;;;;32.30;16.83;;;;;;;;;;5035802;28;20543;-78
2021/01/24 10:03:00;;;;;;;23.75;13.25;;;;;;;;;;5035872;28;20538;-79
2021/01/24 10:05:26;;;;;;;32.08;18.48;;;;;;;;;;5036064;28;20213;-80
2021/01/24 10:07:52;;;;;;;26.90;15.77;;;;;;;;;;5035769;28;20688;-78
2021/01/24 10:10:18;;;;;;;27.67;16.23;;;;;;;;;;5035285;28;20438;-79
2021/01/24 10:12:44;;;;;;;30.20;17.57;;;;;;;;;;5035480;28;20500;-78
2021/01/24 10:15:11;;;;;;;22.20;11.07;;;;;;;;;;5036052;28;20402;-78
2021/01/24 10:17:37;;;;;;;30.67;17.25;;;;;;;;;;5035155;28;20436;-78
2021/01/24 10:20:03;;;;;;;33.10;19.27;;;;;;;;;;5035901;28;20183;-78
2021/01/24 10:22:29;;;;;;;27.88;16.30;;;;;;;;;;5035982;28;20500;-78
2021/01/24 10:24:55;;;;;;;29.13;19.20;;;;;;;;;;5035692;28;20238;-78
2021/01/24 10:27:21;;;;;;;30.13;16.48;;;;;;;;;;5035506;28;20428;-78
2021/01/24 10:29:47;;;;;;;31.07;19.53;;;;;;;;;;5035836;28;20616;-78
2021/01/24 10:32:13;;;;;;;39.50;21.40;;;;;;;;;;5035623;28;20501;-78
2021/01/24 10:34:39;;;;;;;27.17;17.93;;;;;;;;;;5035633;28;20458;-77
2021/01/24 10:37:05;;;;;;;23.20;16.08;;;;;;;;;;5035167;28;20517;-78
2021/01/24 10:39:30;;;;;;;36.63;21.17;;;;;;;;;;5035708;28;20170;-79
2021/01/24 10:41:57;;;;;;;33.37;20.80;;;;;;;;;;5034584;28;20177;-79
2021/01/24 10:44:23;;;;;;;34.47;20.92;;;;;;;;;;5036673;28;20440;-79
2021/01/24 10:46:49;;;;;;;29.42;19.55;;;;;;;;;;5035524;28;20233;-79
2021/01/24 10:49:15;;;;;;;30.67;19.00;;;;;;;;;;5036083;28;20178;-79
2021/01/24 10:51:40;;;;;;;28.13;14.68;;;;;;;;;;5035371;28;20895;-79
2021/01/24 10:54:06;;;;;;;28.70;18.42;;;;;;;;;;5035188;28;20209;-79
2021/01/24 10:56:32;;;;;;;27.83;19.40;;;;;;;;;;5034738;28;20657;-80
2021/01/24 10:58:58;;;;;;;27.93;17.40;;;;;;;;;;5034598;28;20434;-79
2021/01/24 11:01:24;;;;;;;29.98;18.60;;;;;;;;;;5034819;28;20405;-79
2021/01/24 11:03:50;;;;;;;26.87;16.57;;;;;;;;;;5035128;28;20507;-80
2021/01/24 11:06:16;;;;;;;26.15;16.77;;;;;;;;;;5035096;28;20456;-82
2021/01/24 11:08:42;;;;;;;24.40;15.50;;;;;;;;;;5033386;28;20198;-80
2021/01/24 11:11:08;;;;;;;34.65;18.38;;;;;;;;;;5035105;28;20593;-79
2021/01/24 11:13:34;;;;;;;26.48;17.55;;;;;;;;;;5034888;28;20204;-79
2021/01/24 11:16:00;;;;;;;23.48;14.70;;;;;;;;;;5033824;28;20173;-79
2021/01/24 11:18:26;;;;;;;27.55;16.23;;;;;;;;;;5034491;28;20212;-79
2021/01/24 11:20:53;;;;;;;25.27;16.48;;;;;;;;;;5034780;28;20222;-80
2021/01/24 11:23:18;;;;;;;22.52;15.35;;;;;;;;;;5034720;28;20728;-77
2021/01/24 11:25:44;;;;;;;27.47;17.87;;;;;;;;;;5033801;28;20271;-77
2021/01/24 11:28:11;;;;;;;24.10;17.58;;;;;;;;;;5034390;28;20480;-78
2021/01/24 11:30:37;;;;;;;21.75;15.68;;;;;;;;;;5032554;28;20179;-79
2021/01/24 11:33:03;;;;;;;29.98;18.15;;;;;;;;;;5034475;28;20208;-78
2021/01/24 11:35:30;;;;;;;23.20;14.98;;;;;;;;;;5035026;28;20175;-78
2021/01/24 11:37:56;;;;;;;21.98;14.50;;;;;;;;;;5034404;28;20277;-78
2021/01/24 11:40:21;;;;;;;24.42;14.50;;;;;;;;;;5034467;28;20249;-78
2021/01/24 11:42:50;;;;;;;22.08;14.70;;;;;;;;;;5034431;28;20184;-79
2021/01/24 11:45:16;;;;;;;20.73;14.60;;;;;;;;;;5033173;28;20183;-79
2021/01/24 11:47:42;;;;;;;24.52;16.00;;;;;;;;;;5032516;28;20235;-78
2021/01/24 11:50:08;;;;;;;25.25;16.38;;;;;;;;;;5034288;28;20185;-78
2021/01/24 11:52:34;;;;;;;26.15;13.90;;;;;;;;;;5034053;28;20205;-78
2021/01/24 11:55:00;;;;;;;20.85;12.20;;;;;;;;;;5033963;28;20184;-78
2021/01/24 11:57:26;;;;;;;18.47;11.37;;;;;;;;;;5033756;28;20209;-78
2021/01/24 11:59:52;;;;;;;21.60;10.67;;;;;;;;;;5031230;28;20500;-78
2021/01/24 12:02:21;;;;;;;14.70;9.43;;;;;;;;;;5028314;28;20903;-79
2021/01/24 12:04:47;;;;;;;16.23;10.50;;;;;;;;;;5033896;28;20916;-79
2021/01/24 12:07:13;;;;;;;17.83;10.53;;;;;;;;;;5033462;28;20197;-79
2021/01/24 12:09:39;;;;;;;15.17;12.50;;;;;;;;;;5033698;28;20918;-78
2021/01/24 12:12:05;;;;;;;21.13;11.70;;;;;;;;;;5034079;28;20450;-79
2021/01/24 12:14:31;;;;;;;20.75;10.32;;;;;;;;;;5033797;28;20513;-78
2021/01/24 12:16:57;;;;;;;22.83;13.70;;;;;;;;;;5033395;28;20581;-79
2021/01/24 12:19:23;;;;;;;15.50;9.30;;;;;;;;;;5033624;28;20424;-79
2021/01/24 12:21:49;;;;;;;19.15;9.95;;;;;;;;;;5031757;28;20416;-78
2021/01/24 12:24:15;;;;;;;13.75;9.80;;;;;;;;;;5033510;28;20594;-78
2021/01/24 12:26:43;;;;;;;13.38;8.90;;;;;;;;;;5033511;28;20232;-78
2021/01/24 12:29:09;;;;;;;16.63;9.65;;;;;;;;;;5033369;28;20204;-78
2021/01/24 12:31:35;;;;;;;14.50;9.33;;;;;;;;;;5033249;28;20190;-78
2021/01/24 12:34:01;;;;;;;18.42;9.63;;;;;;;;;;5033588;28;20947;-79
2021/01/24 12:36:27;;;;;;;10.00;7.10;;;;;;;;;;5032270;28;20527;-79
2021/01/24 12:38:53;;;;;;;13.20;6.57;;;;;;;;;;5031913;28;20210;-81
2021/01/24 12:41:19;;;;;;;10.43;6.45;;;;;;;;;;5031707;28;20178;-78
2021/01/24 12:43:46;;;;;;;13.23;6.10;;;;;;;;;;5032051;28;20182;-80
2021/01/24 12:46:12;;;;;;;10.02;6.30;;;;;;;;;;5032255;28;20727;-77
2021/01/24 12:48:39;;;;;;;14.53;7.73;;;;;;;;;;5032196;28;20252;-81
2021/01/24 12:51:06;;;;;;;10.15;6.35;;;;;;;;;;5033267;28;20407;-80
2021/01/24 12:53:32;;;;;;;7.30;5.82;;;;;;;;;;5033055;28;20623;-78
2021/01/24 12:55:58;;;;;;;12.05;7.43;;;;;;;;;;5033034;28;20170;-80
2021/01/24 12:58:24;;;;;;;10.98;6.45;;;;;;;;;;5032910;28;20201;-80
2021/01/24 13:00:50;;;;;;;10.77;5.83;;;;;;;;;;5032956;28;20169;-80
2021/01/24 13:03:16;;;;;;;22.57;12.87;;;;;;;;;;5032744;28;20504;-79
2021/01/24 13:05:41;;;;;;;14.45;7.45;;;;;;;;;;5035039;28;20520;-80
2021/01/24 13:08:08;;;;;;;11.97;7.33;;;;;;;;;;5031992;28;20766;-80
2021/01/24 13:10:34;;;;;;;9.40;6.35;;;;;;;;;;5032347;28;20450;-81
2021/01/24 13:13:00;;;;;;;9.80;7.20;;;;;;;;;;5032849;28;20214;-81
2021/01/24 13:15:26;;;;;;;9.15;7.10;;;;;;;;;;5032664;28;20186;-80
2021/01/24 13:17:52;;;;;;;11.45;7.50;;;;;;;;;;5031070;28;20604;-81
2021/01/24 13:20:18;;;;;;;12.30;7.00;;;;;;;;;;5032542;28;20391;-82
2021/01/24 13:22:44;;;;;;;9.35;7.07;;;;;;;;;;5032873;28;20213;-81
2021/01/24 13:25:10;;;;;;;9.50;6.80;;;;;;;;;;5031795;28;20236;-81
2021/01/24 13:27:36;;;;;;;13.15;8.32;;;;;;;;;;5019222;28;20895;-82
2021/01/24 13:30:02;;;;;;;12.50;7.87;;;;;;;;;;5032395;28;20290;-82
2021/01/24 13:32:28;;;;;;;11.68;7.70;;;;;;;;;;5030981;28;20425;-82
2021/01/24 13:34:54;;;;;;;19.47;8.77;;;;;;;;;;5032778;28;20631;-81
2021/01/24 13:37:20;;;;;;;16.87;10.77;;;;;;;;;;5031130;28;20456;-82
2021/01/24 13:39:46;;;;;;;14.03;8.10;;;;;;;;;;5031645;28;20452;-81
2021/01/24 13:42:12;;;;;;;10.15;6.78;;;;;;;;;;5030605;28;20515;-81
2021/01/24 13:44:41;;;;;;;11.47;6.83;;;;;;;;;;5025596;28;20730;-81
2021/01/24 13:47:07;;;;;;;16.00;7.97;;;;;;;;;;5022170;28;20437;-81
2021/01/24 13:49:33;;;;;;;11.55;7.00;;;;;;;;;;5028420;28;20171;-82
2021/01/24 13:51:59;;;;;;;11.90;7.55;;;;;;;;;;5025137;28;20635;-82
2021/01/24 13:54:25;;;;;;;11.73;7.00;;;;;;;;;;5028434;28;20223;-82
2021/01/24 13:56:51;;;;;;;15.27;8.45;;;;;;;;;;5028018;28;20225;-81
2021/01/24 13:59:17;;;;;;;14.77;9.83;;;;;;;;;;5036027;28;20185;-81
2021/01/24 14:01:43;;;;;;;11.77;8.32;;;;;;;;;;5022032;28;20783;-81
2021/01/24 14:04:09;;;;;;;16.80;9.10;;;;;;;;;;5031296;28;20187;-81
2021/01/24 14:06:35;;;;;;;17.10;8.80;;;;;;;;;;5026654;28;20197;-81
2021/01/24 14:09:01;;;;;;;11.73;8.37;;;;;;;;;;5035170;28;20535;-80
2021/01/24 14:11:27;;;;;;;14.68;7.93;;;;;;;;;;5034131;28;20536;-81
2021/01/24 14:13:53;;;;;;;11.57;8.02;;;;;;;;;;5033962;28;20674;-80
2021/01/24 14:16:19;;;;;;;11.67;7.60;;;;;;;;;;5034505;28;20188;-80
2021/01/24 14:18:45;;;;;;;16.60;8.77;;;;;;;;;;5035417;28;20444;-81
2021/01/24 14:21:11;;;;;;;17.33;9.23;;;;;;;;;;5035618;28;20420;-81
2021/01/24 14:23:37;;;;;;;14.50;8.70;;;;;;;;;;5035625;28;20265;-80